Time;durP1;ratioP1;P1;durP2;ratioP2;P2;SDS_P1;SDS_P2;PMS_P1;PMS_P2;Temp;Humidity;BMP_temperature;BMP_pressure;BME280_temperature;BME280_humidity;BME280_pressure;Samples;Min_cycle;Max_cycle;Signal;HPM_P1;HPM_P2
2023/06/12 00:02:01;;;;;;;3.22;1.50;;;;;;;;;;5050947;28;20045;-66
2023/06/12 00:04:31;;;;;;;2.25;1.20;;;;;;;;;;5018021;28;20049;-66
2023/06/12 00:07:02;;;;;;;6.55;2.00;;;;;;;;;;5050601;28;20053;-65
2023/06/12 00:09:33;;;;;;;3.75;1.58;;;;;;;;;;5050647;28;20064;-65
2023/06/12 00:12:04;;;;;;;2.40;1.30;;;;;;;;;;5046955;28;20049;-66
2023/06/12 00:14:34;;;;;;;3.20;1.58;;;;;;;;;;5017536;28;20056;-65
2023/06/12 00:17:05;;;;;;;3.65;2.08;;;;;;;;;;5017271;28;20045;-65
2023/06/12 00:19:35;;;;;;;3.05;0.88;;;;;;;;;;5050611;28;20052;-65
2023/06/12 00:22:06;;;;;;;1.70;1.00;;;;;;;;;;5050457;28;20497;-64
2023/06/12 00:24:36;;;;;;;2.17;1.17;;;;;;;;;;5017264;28;20056;-65
2023/06/12 00:27:07;;;;;;;4.03;1.50;;;;;;;;;;5017091;28;20053;-65
2023/06/12 00:29:37;;;;;;;2.78;1.30;;;;;;;;;;5071249;28;20060;-65
2023/06/12 00:32:07;;;;;;;3.03;1.55;;;;;;;;;;5093213;28;20044;-65
2023/06/12 00:34:38;;;;;;;3.40;1.38;;;;;;;;;;5092906;28;20047;-65
2023/06/12 00:37:08;;;;;;;5.28;1.45;;;;;;;;;;5069890;28;20044;-65
2023/06/12 00:39:38;;;;;;;4.53;1.60;;;;;;;;;;5049841;28;20068;-65
2023/06/12 00:42:10;;;;;;;2.95;1.42;;;;;;;;;;5049882;28;20088;-65
2023/06/12 00:44:40;;;;;;;2.83;1.35;;;;;;;;;;5009950;28;20050;-65
2023/06/12 00:47:11;;;;;;;1.42;0.60;;;;;;;;;;5030036;28;20057;-65
2023/06/12 00:49:42;;;;;;;6.55;2.13;;;;;;;;;;4997745;28;20121;-65
2023/06/12 00:52:14;;;;;;;7.30;1.85;;;;;;;;;;5030184;28;20049;-65
2023/06/12 00:54:46;;;;;;;4.18;1.90;;;;;;;;;;4997498;28;20053;-65
2023/06/12 00:57:17;;;;;;;3.65;1.92;;;;;;;;;;5029814;28;20092;-65
2023/06/12 00:59:49;;;;;;;3.38;1.55;;;;;;;;;;5009624;28;20054;-65
2023/06/12 01:02:23;;;;;;;6.53;1.52;;;;;;;;;;5010053;28;20045;-65
2023/06/12 01:04:55;;;;;;;3.75;1.60;;;;;;;;;;4990082;28;20585;-65
2023/06/12 01:07:48;;;;;;;3.05;1.73;;;;;;;;;;4954910;28;20046;-65
2023/06/12 01:10:28;;;;;;;2.53;1.17;;;;;;;;;;4970710;28;20073;-65
2023/06/12 01:13:00;;;;;;;4.22;1.40;;;;;;;;;;4966832;28;20174;-65
2023/06/12 01:15:30;;;;;;;2.97;1.80;;;;;;;;;;4940146;28;20058;-64
2023/06/12 01:18:03;;;;;;;4.93;1.52;;;;;;;;;;4935566;29;20059;-65
2023/06/12 01:20:37;;;;;;;2.85;1.13;;;;;;;;;;4935769;29;20508;-64
2023/06/12 01:23:25;;;;;;;3.47;1.60;;;;;;;;;;4916498;29;20064;-65
2023/06/12 01:26:11;;;;;;;5.68;1.73;;;;;;;;;;4903417;29;20058;-64
2023/06/12 01:29:03;;;;;;;2.85;1.15;;;;;;;;;;4915761;29;20058;-64
2023/06/12 01:31:50;;;;;;;2.55;1.13;;;;;;;;;;4915296;29;20051;-65
2023/06/12 01:34:43;;;;;;;3.85;1.60;;;;;;;;;;4893949;29;20110;-63
2023/06/12 01:37:31;;;;;;;5.50;1.63;;;;;;;;;;4886274;29;20451;-64
2023/06/12 01:40:08;;;;;;;4.00;1.30;;;;;;;;;;4912289;29;20074;-65
2023/06/12 01:42:40;;;;;;;2.90;1.30;;;;;;;;;;4912434;29;20063;-65
2023/06/12 01:45:10;;;;;;;2.25;0.98;;;;;;;;;;4903122;29;20061;-65
2023/06/12 01:47:40;;;;;;;4.22;1.30;;;;;;;;;;4894016;29;20061;-65
2023/06/12 01:50:14;;;;;;;3.53;1.40;;;;;;;;;;4906322;29;20068;-65
2023/06/12 01:52:45;;;;;;;2.92;1.35;;;;;;;;;;4924928;29;20404;-65
2023/06/12 01:55:19;;;;;;;3.25;1.38;;;;;;;;;;4950379;29;20047;-64
2023/06/12 01:57:52;;;;;;;4.70;1.23;;;;;;;;;;4950340;29;20043;-64
2023/06/12 02:00:37;;;;;;;4.97;1.42;;;;;;;;;;4931418;29;20059;-64
2023/06/12 02:03:10;;;;;;;3.28;1.25;;;;;;;;;;4912235;29;20549;-65
2023/06/12 02:05:40;;;;;;;5.70;1.65;;;;;;;;;;4934819;29;21090;-64
2023/06/12 02:08:12;;;;;;;2.17;1.30;;;;;;;;;;4921459;28;20054;-65
2023/06/12 02:10:45;;;;;;;3.40;1.42;;;;;;;;;;4969696;28;20555;-64
2023/06/12 02:13:15;;;;;;;4.90;1.50;;;;;;;;;;4950412;29;20051;-65
2023/06/12 02:15:47;;;;;;;3.88;1.80;;;;;;;;;;4917334;29;20044;-66
2023/06/12 02:18:18;;;;;;;5.55;1.75;;;;;;;;;;4955313;28;20124;-66
2023/06/12 02:20:49;;;;;;;4.65;1.60;;;;;;;;;;4949929;28;20058;-66
2023/06/12 02:23:19;;;;;;;6.20;1.67;;;;;;;;;;4969316;28;20050;-65
2023/06/12 02:25:50;;;;;;;3.60;1.38;;;;;;;;;;4946521;28;20052;-65
2023/06/12 02:28:21;;;;;;;6.10;1.58;;;;;;;;;;4914769;29;20058;-65
2023/06/12 02:30:52;;;;;;;6.35;1.55;;;;;;;;;;4917894;29;20055;-65
2023/06/12 02:33:25;;;;;;;4.85;1.77;;;;;;;;;;4867438;29;20537;-66
2023/06/12 02:35:55;;;;;;;3.83;1.42;;;;;;;;;;4905328;29;20480;-66
2023/06/12 02:38:26;;;;;;;4.10;1.40;;;;;;;;;;4901327;29;20067;-66
2023/06/12 02:40:58;;;;;;;6.10;1.60;;;;;;;;;;4911710;29;20059;-66
2023/06/12 02:43:28;;;;;;;9.30;1.80;;;;;;;;;;4891536;29;20049;-67
2023/06/12 02:45:58;;;;;;;3.67;1.38;;;;;;;;;;4889279;29;20045;-66
2023/06/12 02:48:32;;;;;;;5.63;1.63;;;;;;;;;;4882795;29;20062;-66
2023/06/12 02:51:02;;;;;;;4.10;1.80;;;;;;;;;;4847095;29;20061;-66
2023/06/12 02:53:32;;;;;;;4.20;1.67;;;;;;;;;;4846009;29;20050;-66
2023/06/12 02:56:02;;;;;;;3.35;1.35;;;;;;;;;;4870904;29;20407;-66
2023/06/12 02:58:34;;;;;;;5.15;1.60;;;;;;;;;;4869137;29;20073;-65
2023/06/12 03:01:04;;;;;;;4.32;1.30;;;;;;;;;;4867853;29;20410;-66
2023/06/12 03:03:36;;;;;;;3.65;1.40;;;;;;;;;;4877937;29;20101;-67
2023/06/12 03:06:08;;;;;;;7.70;1.67;;;;;;;;;;4877778;29;20061;-67
2023/06/12 03:08:38;;;;;;;6.63;1.73;;;;;;;;;;4847156;29;20061;-67
2023/06/12 03:11:12;;;;;;;6.82;1.83;;;;;;;;;;4869258;29;20615;-67
2023/06/12 03:13:42;;;;;;;3.78;1.50;;;;;;;;;;4877842;29;20057;-67
2023/06/12 03:16:14;;;;;;;6.25;1.60;;;;;;;;;;4867939;29;20057;-66
2023/06/12 03:18:44;;;;;;;5.95;1.80;;;;;;;;;;4818549;29;20050;-66
2023/06/12 03:21:15;;;;;;;4.03;1.60;;;;;;;;;;4868969;29;20045;-67
2023/06/12 03:23:45;;;;;;;4.85;1.88;;;;;;;;;;4882245;29;20064;-67
2023/06/12 03:26:16;;;;;;;3.85;1.73;;;;;;;;;;4852939;29;20531;-67
2023/06/12 03:28:46;;;;;;;4.38;1.85;;;;;;;;;;4874670;29;20719;-66
2023/06/12 03:31:17;;;;;;;4.00;1.80;;;;;;;;;;4864802;29;20056;-66
2023/06/12 03:33:47;;;;;;;4.05;2.00;;;;;;;;;;4914963;29;20067;-67
2023/06/12 03:36:17;;;;;;;7.43;1.98;;;;;;;;;;4905470;29;20173;-67
2023/06/12 03:38:48;;;;;;;5.43;1.75;;;;;;;;;;4877370;29;20060;-66
2023/06/12 03:41:22;;;;;;;6.80;1.65;;;;;;;;;;4861600;29;20515;-67
2023/06/12 03:43:52;;;;;;;3.65;1.45;;;;;;;;;;4877830;29;20052;-67
2023/06/12 03:46:24;;;;;;;6.10;1.75;;;;;;;;;;4914589;29;20059;-66
2023/06/12 03:48:54;;;;;;;5.32;1.52;;;;;;;;;;4899379;29;20484;-67
2023/06/12 03:51:24;;;;;;;6.15;1.63;;;;;;;;;;4876932;29;20058;-67
2023/06/12 03:53:56;;;;;;;4.60;1.60;;;;;;;;;;4876959;29;20060;-67
2023/06/12 03:56:26;;;;;;;4.72;1.38;;;;;;;;;;4852294;29;20068;-67
2023/06/12 03:58:57;;;;;;;5.80;1.75;;;;;;;;;;4867849;29;20053;-66
2023/06/12 04:01:27;;;;;;;4.00;1.50;;;;;;;;;;4892609;29;20057;-67
2023/06/12 04:03:58;;;;;;;4.53;1.38;;;;;;;;;;4849317;29;20054;-67
2023/06/12 04:06:29;;;;;;;4.15;1.30;;;;;;;;;;4839759;29;20069;-68
2023/06/12 04:09:01;;;;;;;3.85;1.67;;;;;;;;;;4870667;29;20054;-67
2023/06/12 04:11:32;;;;;;;6.25;1.50;;;;;;;;;;4895494;29;20052;-67
2023/06/12 04:14:05;;;;;;;4.97;1.65;;;;;;;;;;4895564;29;20049;-67
2023/06/12 04:16:36;;;;;;;4.32;1.60;;;;;;;;;;4876435;29;20498;-67
2023/06/12 04:19:07;;;;;;;7.82;1.70;;;;;;;;;;4877136;29;20056;-66
2023/06/12 04:21:37;;;;;;;5.57;1.70;;;;;;;;;;4876730;29;20056;-66
2023/06/12 04:24:15;;;;;;;7.07;1.60;;;;;;;;;;4852307;29;20410;-66
2023/06/12 04:26:49;;;;;;;6.32;1.73;;;;;;;;;;4876737;29;20553;-66
2023/06/12 04:29:21;;;;;;;5.10;1.75;;;;;;;;;;4821103;29;20050;-67
2023/06/12 04:31:54;;;;;;;3.63;1.52;;;;;;;;;;4835275;29;20066;-67
2023/06/12 04:34:25;;;;;;;9.32;2.00;;;;;;;;;;4906885;29;20053;-67
2023/06/12 04:36:56;;;;;;;7.63;2.03;;;;;;;;;;4895265;29;20056;-68
2023/06/12 04:39:29;;;;;;;6.57;1.48;;;;;;;;;;4879294;29;20057;-68
2023/06/12 04:41:58;;;;;;;;;;;;;;;;;;4871473;29;20057;-67
2023/06/12 04:44:31;;;;;;;4.65;1.73;;;;;;;;;;4858223;29;20409;-67
2023/06/12 04:47:11;;;;;;;8.30;1.65;;;;;;;;;;4888627;29;20053;-66
2023/06/12 04:49:45;;;;;;;3.85;1.58;;;;;;;;;;4868556;29;20064;-67
2023/06/12 04:52:18;;;;;;;6.18;1.70;;;;;;;;;;4879212;29;20057;-67
2023/06/12 04:54:49;;;;;;;6.95;2.20;;;;;;;;;;4898213;29;20064;-66
2023/06/12 04:57:22;;;;;;;5.07;1.73;;;;;;;;;;4932764;29;20054;-66
2023/06/12 04:59:52;;;;;;;3.85;1.08;;;;;;;;;;4897548;29;20055;-66
2023/06/12 05:02:24;;;;;;;5.30;2.17;;;;;;;;;;4883047;29;20056;-66
2023/06/12 05:04:54;;;;;;;8.63;2.05;;;;;;;;;;4913171;29;20048;-66
2023/06/12 05:07:24;;;;;;;5.63;2.05;;;;;;;;;;4882219;29;20086;-66
2023/06/12 05:09:58;;;;;;;9.35;2.42;;;;;;;;;;4894693;29;20049;-66
2023/06/12 05:12:31;;;;;;;7.25;2.22;;;;;;;;;;4926125;29;20055;-66
2023/06/12 05:15:02;;;;;;;7.50;2.03;;;;;;;;;;4932093;29;20051;-67
2023/06/12 05:17:32;;;;;;;4.57;2.00;;;;;;;;;;4931502;29;20059;-66
2023/06/12 05:20:08;;;;;;;8.48;1.90;;;;;;;;;;4925544;29;20561;-66
2023/06/12 05:22:40;;;;;;;6.22;1.92;;;;;;;;;;4932324;29;20067;-66
2023/06/12 05:25:11;;;;;;;5.28;2.22;;;;;;;;;;4894334;29;20064;-66
2023/06/12 05:27:43;;;;;;;7.32;2.17;;;;;;;;;;4838622;29;20058;-66
2023/06/12 05:30:13;;;;;;;7.38;2.55;;;;;;;;;;4801070;29;20099;-66
2023/06/12 05:32:44;;;;;;;4.43;1.90;;;;;;;;;;4838162;29;20061;-65
2023/06/12 05:35:14;;;;;;;5.68;2.13;;;;;;;;;;4810986;29;20056;-65
2023/06/12 05:37:45;;;;;;;8.60;1.73;;;;;;;;;;4802049;29;20051;-66
2023/06/12 05:40:15;;;;;;;7.18;1.92;;;;;;;;;;4820300;29;20070;-65
2023/06/12 05:42:46;;;;;;;8.73;3.03;;;;;;;;;;4819904;29;20050;-65
2023/06/12 05:45:16;;;;;;;11.27;2.80;;;;;;;;;;4801484;29;20047;-65
2023/06/12 05:47:47;;;;;;;8.63;2.92;;;;;;;;;;4819664;29;20061;-65
2023/06/12 05:50:20;;;;;;;5.10;2.50;;;;;;;;;;4800391;29;20066;-66
2023/06/12 05:52:52;;;;;;;9.80;2.20;;;;;;;;;;4791661;29;20532;-65
2023/06/12 05:55:22;;;;;;;6.78;1.85;;;;;;;;;;4811315;29;20051;-65
2023/06/12 05:57:52;;;;;;;5.32;2.13;;;;;;;;;;4837715;29;20112;-65
2023/06/12 06:00:24;;;;;;;5.18;1.92;;;;;;;;;;4819236;29;20054;-65
2023/06/12 06:03:15;;;;;;;5.90;1.90;;;;;;;;;;4844715;29;20058;-65
2023/06/12 06:05:48;;;;;;;7.90;2.50;;;;;;;;;;4856072;29;20056;-65
2023/06/12 06:08:19;;;;;;;6.57;1.92;;;;;;;;;;4844558;29;20108;-65
2023/06/12 06:10:49;;;;;;;5.03;2.13;;;;;;;;;;4837752;29;20066;-65
2023/06/12 06:13:21;;;;;;;6.72;2.03;;;;;;;;;;4843748;29;20411;-65
2023/06/12 06:15:52;;;;;;;6.72;2.30;;;;;;;;;;4807565;29;20179;-65
2023/06/12 06:18:22;;;;;;;5.32;2.20;;;;;;;;;;4868505;29;20045;-65
2023/06/12 06:20:53;;;;;;;5.80;2.40;;;;;;;;;;4852824;29;20524;-65
2023/06/12 06:23:25;;;;;;;7.30;2.22;;;;;;;;;;4877875;29;20060;-65
2023/06/12 06:25:57;;;;;;;6.05;1.27;;;;;;;;;;4855829;29;20054;-65
2023/06/12 06:28:28;;;;;;;5.35;1.85;;;;;;;;;;4855838;29;20049;-65
2023/06/12 06:30:59;;;;;;;7.28;1.90;;;;;;;;;;4856031;29;20065;-65
2023/06/12 06:33:32;;;;;;;6.63;2.10;;;;;;;;;;4850102;29;20053;-65
2023/06/12 06:36:02;;;;;;;6.32;2.28;;;;;;;;;;4855752;29;20057;-64
2023/06/12 06:38:33;;;;;;;4.47;2.13;;;;;;;;;;4831554;29;20085;-65
2023/06/12 06:41:03;;;;;;;5.22;1.65;;;;;;;;;;4819820;29;20054;-65
2023/06/12 06:43:34;;;;;;;5.50;2.30;;;;;;;;;;4800448;29;20073;-65
2023/06/12 06:46:08;;;;;;;8.77;2.20;;;;;;;;;;4837491;29;20057;-66
2023/06/12 06:48:38;;;;;;;6.85;1.83;;;;;;;;;;4863105;29;20053;-65
2023/06/12 06:51:10;;;;;;;5.00;1.95;;;;;;;;;;4864327;29;20058;-65
2023/06/12 06:53:41;;;;;;;3.17;1.40;;;;;;;;;;4856305;29;20050;-65
2023/06/12 06:56:11;;;;;;;4.78;1.70;;;;;;;;;;4884678;29;20056;-65
2023/06/12 06:58:42;;;;;;;5.68;1.75;;;;;;;;;;4912150;29;20059;-66
2023/06/12 07:01:15;;;;;;;4.88;2.33;;;;;;;;;;4942736;29;20053;-65
2023/06/12 07:03:47;;;;;;;8.25;2.53;;;;;;;;;;4923470;29;20076;-65
2023/06/12 07:06:20;;;;;;;;;;;;;;;;;;4899202;29;20443;-66
2023/06/12 07:08:50;;;;;;;3.67;1.58;;;;;;;;;;4930709;29;20317;-65
2023/06/12 07:11:24;;;;;;;22.02;8.77;;;;;;;;;;4937550;28;20054;-65
2023/06/12 07:13:55;;;;;;;12.00;4.80;;;;;;;;;;4969081;28;20104;-65
2023/06/12 07:16:26;;;;;;;6.63;2.72;;;;;;;;;;4949715;29;20058;-65
2023/06/12 07:18:57;;;;;;;11.30;3.42;;;;;;;;;;4930636;29;20048;-65
2023/06/12 07:21:27;;;;;;;11.60;4.63;;;;;;;;;;4930496;29;20066;-65
2023/06/12 07:23:58;;;;;;;3.53;1.60;;;;;;;;;;4899190;29;20590;-65
2023/06/12 07:26:30;;;;;;;5.53;2.40;;;;;;;;;;4880563;29;20528;-65
2023/06/12 07:29:05;;;;;;;3.90;1.52;;;;;;;;;;4870827;29;20054;-65
2023/06/12 07:31:37;;;;;;;8.07;2.20;;;;;;;;;;4881392;29;20056;-65
2023/06/12 07:34:07;;;;;;;3.95;1.60;;;;;;;;;;4821058;29;20069;-65
2023/06/12 07:36:37;;;;;;;4.35;1.35;;;;;;;;;;4837434;29;20073;-65
2023/06/12 07:39:07;;;;;;;2.33;0.93;;;;;;;;;;4805514;29;20223;-65
2023/06/12 07:41:39;;;;;;;4.18;0.80;;;;;;;;;;4784508;29;20059;-65
2023/06/12 07:44:12;;;;;;;5.60;1.33;;;;;;;;;;4803711;29;20523;-65
2023/06/12 07:46:43;;;;;;;2.38;0.82;;;;;;;;;;4788549;29;20412;-65
2023/06/12 07:49:16;;;;;;;4.25;1.40;;;;;;;;;;4803775;29;20495;-65
2023/06/12 07:51:48;;;;;;;4.78;1.13;;;;;;;;;;4814298;29;20078;-65
2023/06/12 07:54:22;;;;;;;7.45;1.40;;;;;;;;;;4821975;29;20533;-65
2023/06/12 07:56:53;;;;;;;2.22;1.13;;;;;;;;;;4811184;29;20065;-65
2023/06/12 07:59:23;;;;;;;5.20;1.70;;;;;;;;;;4803800;29;20062;-65
2023/06/12 08:01:58;;;;;;;4.13;1.10;;;;;;;;;;4790458;29;20054;-65
2023/06/12 08:04:30;;;;;;;4.20;1.42;;;;;;;;;;4858217;29;20064;-65
2023/06/12 08:07:02;;;;;;;3.88;1.85;;;;;;;;;;4858103;29;20070;-65
2023/06/12 08:09:33;;;;;;;3.55;1.40;;;;;;;;;;4873416;29;20053;-65
2023/06/12 08:12:03;;;;;;;6.07;1.40;;;;;;;;;;4813472;29;20059;-65
2023/06/12 08:14:34;;;;;;;3.17;1.13;;;;;;;;;;4821406;29;20055;-65
2023/06/12 08:17:04;;;;;;;4.03;1.33;;;;;;;;;;4810462;29;20063;-65
2023/06/12 08:19:35;;;;;;;3.28;1.25;;;;;;;;;;4839720;29;20546;-64
2023/06/12 08:22:07;;;;;;;4.57;1.42;;;;;;;;;;4840073;29;20178;-65
2023/06/12 08:24:41;;;;;;;2.92;1.10;;;;;;;;;;4839804;29;20054;-65
2023/06/12 08:27:13;;;;;;;5.82;2.03;;;;;;;;;;4817242;29;20063;-65
2023/06/12 08:29:43;;;;;;;9.65;2.03;;;;;;;;;;4821528;29;20062;-65
2023/06/12 08:32:14;;;;;;;4.45;1.33;;;;;;;;;;4785658;29;20062;-65
2023/06/12 08:34:45;;;;;;;2.40;1.35;;;;;;;;;;4755606;30;20055;-65
2023/06/12 08:37:15;;;;;;;8.32;1.40;;;;;;;;;;4805492;29;20070;-65
2023/06/12 08:39:46;;;;;;;4.50;1.40;;;;;;;;;;4830824;29;20057;-65
2023/06/12 08:42:18;;;;;;;4.78;1.95;;;;;;;;;;4857713;29;20056;-65
2023/06/12 08:44:48;;;;;;;3.47;1.38;;;;;;;;;;4848148;29;20069;-64
2023/06/12 08:47:20;;;;;;;4.85;1.40;;;;;;;;;;4835732;29;20054;-65
2023/06/12 08:49:52;;;;;;;3.67;1.35;;;;;;;;;;4828003;29;20062;-65
2023/06/12 08:52:22;;;;;;;4.05;1.48;;;;;;;;;;4867219;29;20049;-64
2023/06/12 08:54:53;;;;;;;4.70;1.48;;;;;;;;;;4876874;29;20079;-65
2023/06/12 08:57:24;;;;;;;3.15;1.20;;;;;;;;;;4871311;29;20210;-65
2023/06/12 08:59:54;;;;;;;4.18;1.60;;;;;;;;;;4844079;29;20066;-64
2023/06/12 09:02:27;;;;;;;4.13;1.52;;;;;;;;;;4849867;29;20068;-65
2023/06/12 09:05:03;;;;;;;3.88;1.50;;;;;;;;;;4875813;29;20139;-65
2023/06/12 09:07:37;;;;;;;3.60;1.60;;;;;;;;;;4863491;29;20057;-65
2023/06/12 09:10:07;;;;;;;4.25;1.80;;;;;;;;;;4917317;29;20629;-65
2023/06/12 09:12:45;;;;;;;6.10;1.52;;;;;;;;;;4932458;29;20411;-65
2023/06/12 09:15:18;;;;;;;5.32;1.67;;;;;;;;;;4951575;29;20055;-65
2023/06/12 09:17:53;;;;;;;3.70;1.33;;;;;;;;;;4964247;28;20066;-65
2023/06/12 09:20:28;;;;;;;5.95;1.33;;;;;;;;;;4966002;28;20057;-65
2023/06/12 09:23:02;;;;;;;5.75;1.40;;;;;;;;;;5009786;28;20054;-65
2023/06/12 09:25:43;;;;;;;3.05;1.58;;;;;;;;;;4994032;28;20528;-65
2023/06/12 09:28:36;;;;;;;3.08;1.20;;;;;;;;;;5009812;28;20042;-65
2023/06/12 09:31:07;;;;;;;4.90;1.80;;;;;;;;;;5015480;28;20492;-65
2023/06/12 09:33:40;;;;;;;6.32;1.73;;;;;;;;;;5049319;28;20156;-65
2023/06/12 09:36:13;;;;;;;5.05;1.75;;;;;;;;;;4999851;28;20528;-65
2023/06/12 09:38:43;;;;;;;3.58;1.77;;;;;;;;;;5049242;28;20628;-65
2023/06/12 09:41:14;;;;;;;4.35;1.27;;;;;;;;;;5032678;28;20631;-65
2023/06/12 09:43:44;;;;;;;5.13;1.38;;;;;;;;;;5049376;28;20045;-65
2023/06/12 09:46:16;;;;;;;4.03;2.00;;;;;;;;;;4996195;28;20056;-65
2023/06/12 09:48:47;;;;;;;3.45;1.10;;;;;;;;;;5009296;28;20053;-65
2023/06/12 09:51:17;;;;;;;5.28;1.98;;;;;;;;;;5009203;28;20126;-65
2023/06/12 09:53:50;;;;;;;4.55;1.50;;;;;;;;;;5043713;28;20072;-65
2023/06/12 09:56:21;;;;;;;3.92;1.30;;;;;;;;;;5064859;28;20052;-65
2023/06/12 09:58:53;;;;;;;5.00;1.23;;;;;;;;;;5065512;28;20056;-66
2023/06/12 10:01:26;;;;;;;3.55;1.73;;;;;;;;;;5064949;28;20061;-65
2023/06/12 10:03:59;;;;;;;6.70;1.60;;;;;;;;;;5015485;28;20053;-65
2023/06/12 10:06:33;;;;;;;9.27;1.80;;;;;;;;;;5064936;28;20061;-65
2023/06/12 10:09:04;;;;;;;6.03;1.83;;;;;;;;;;5048531;28;20077;-65
2023/06/12 10:11:37;;;;;;;3.40;1.30;;;;;;;;;;5032524;28;20056;-65
2023/06/12 10:14:07;;;;;;;3.80;1.08;;;;;;;;;;5048795;28;20061;-65
2023/06/12 10:16:38;;;;;;;5.70;2.20;;;;;;;;;;5048624;28;20048;-65
2023/06/12 10:19:12;;;;;;;5.55;1.80;;;;;;;;;;5048612;28;20057;-65
2023/06/12 10:21:43;;;;;;;2.45;1.13;;;;;;;;;;5048357;28;20060;-65
2023/06/12 10:24:14;;;;;;;4.50;1.77;;;;;;;;;;5048307;28;20497;-64
2023/06/12 10:26:44;;;;;;;7.10;1.95;;;;;;;;;;5008488;28;20543;-64
2023/06/12 10:29:36;;;;;;;3.92;1.88;;;;;;;;;;5048433;28;20049;-65
2023/06/12 10:32:07;;;;;;;;;;;;;;;;;;5015598;28;20057;-64
2023/06/12 10:34:42;;;;;;;6.65;1.63;;;;;;;;;;5031703;28;19928;-65
2023/06/12 10:37:31;;;;;;;7.03;1.88;;;;;;;;;;5015145;28;20056;-64
2023/06/12 10:40:09;;;;;;;3.70;1.25;;;;;;;;;;5018904;28;20404;-64
2023/06/12 10:42:44;;;;;;;5.50;1.92;;;;;;;;;;5048530;28;20048;-64
2023/06/12 10:45:24;;;;;;;4.65;1.88;;;;;;;;;;5033543;28;20540;-64
2023/06/12 10:48:04;;;;;;;4.20;1.00;;;;;;;;;;4997237;28;20394;-64
2023/06/12 10:50:43;;;;;;;4.32;1.75;;;;;;;;;;5028413;28;20053;-64
2023/06/12 10:53:15;;;;;;;3.88;1.88;;;;;;;;;;5028638;28;20183;-62
2023/06/12 10:55:45;;;;;;;5.57;1.88;;;;;;;;;;5011954;28;20081;-63
2023/06/12 10:58:24;;;;;;;3.38;1.60;;;;;;;;;;5028374;28;20509;-63
2023/06/12 11:00:56;;;;;;;7.97;3.80;;;;;;;;;;5028393;28;20049;-63
2023/06/12 11:03:29;;;;;;;4.65;1.88;;;;;;;;;;5032248;28;20065;-63
2023/06/12 11:06:15;;;;;;;3.83;1.52;;;;;;;;;;5070794;28;20044;-63
2023/06/12 11:08:47;;;;;;;5.65;1.73;;;;;;;;;;5040024;28;20063;-63
2023/06/12 11:11:17;;;;;;;6.47;2.10;;;;;;;;;;5081427;28;20040;-64
2023/06/12 11:13:47;;;;;;;5.43;2.42;;;;;;;;;;5079555;28;20040;-63
2023/06/12 11:16:24;;;;;;;10.10;4.93;;;;;;;;;;5024529;28;20493;-63
2023/06/12 11:19:12;;;;;;;8.52;3.03;;;;;;;;;;5056123;28;20052;-63
2023/06/12 11:21:43;;;;;;;5.80;2.22;;;;;;;;;;5060775;28;20052;-64
2023/06/12 11:24:15;;;;;;;10.45;2.78;;;;;;;;;;5063522;28;20049;-63
2023/06/12 11:26:50;;;;;;;6.18;2.97;;;;;;;;;;5071367;28;20063;-63
2023/06/12 11:29:25;;;;;;;7.38;2.60;;;;;;;;;;5054989;28;20049;-63
2023/06/12 11:32:04;;;;;;;8.40;3.90;;;;;;;;;;5071266;28;20052;-63
2023/06/12 11:34:37;;;;;;;7.75;2.50;;;;;;;;;;5071412;28;20045;-63
2023/06/12 11:37:20;;;;;;;4.07;1.70;;;;;;;;;;5020945;28;20067;-63
2023/06/12 11:40:08;;;;;;;6.55;2.20;;;;;;;;;;5071239;28;20092;-63
2023/06/12 11:42:41;;;;;;;4.47;1.90;;;;;;;;;;5017625;28;20048;-63
2023/06/12 11:45:15;;;;;;;;;;;;;;;;;;5019108;28;20057;-64
2023/06/12 11:47:48;;;;;;;5.10;2.03;;;;;;;;;;4993687;28;19987;-63
2023/06/12 11:50:23;;;;;;;6.93;1.60;;;;;;;;;;4972168;28;20064;-63
2023/06/12 11:52:56;;;;;;;8.95;3.58;;;;;;;;;;4982011;28;20537;-63
2023/06/12 11:55:26;;;;;;;20.08;8.38;;;;;;;;;;4982657;28;20459;-63
2023/06/12 11:58:01;;;;;;;19.13;9.27;;;;;;;;;;4979640;28;20054;-63
2023/06/12 12:00:34;;;;;;;25.58;13.88;;;;;;;;;;4984009;28;20063;-63
2023/06/12 12:03:09;;;;;;;6.00;2.25;;;;;;;;;;4960418;28;20066;-63
2023/06/12 12:05:40;;;;;;;12.52;6.75;;;;;;;;;;4991921;28;20054;-63
2023/06/12 12:08:10;;;;;;;7.03;2.53;;;;;;;;;;4973120;28;20055;-63
2023/06/12 12:10:44;;;;;;;9.85;3.33;;;;;;;;;;4958576;28;20055;-63
2023/06/12 12:13:15;;;;;;;12.52;4.63;;;;;;;;;;4979440;28;20466;-63
2023/06/12 12:15:45;;;;;;;3.92;2.10;;;;;;;;;;4981208;28;20034;-63
2023/06/12 12:18:17;;;;;;;5.78;2.95;;;;;;;;;;4932495;28;20046;-63
2023/06/12 12:20:50;;;;;;;9.15;3.35;;;;;;;;;;5003758;28;20049;-64
2023/06/12 12:23:24;;;;;;;13.93;6.40;;;;;;;;;;5006579;28;20050;-64
2023/06/12 12:25:57;;;;;;;29.67;13.50;;;;;;;;;;5015496;28;20410;-64
2023/06/12 12:28:28;;;;;;;5.78;2.80;;;;;;;;;;4987020;28;20457;-63
2023/06/12 12:30:58;;;;;;;9.10;3.92;;;;;;;;;;5017947;28;20049;-64
2023/06/12 12:33:29;;;;;;;31.23;18.23;;;;;;;;;;5030660;28;20064;-63
2023/06/12 12:35:59;;;;;;;25.73;13.85;;;;;;;;;;5010008;28;20061;-64
2023/06/12 12:38:30;;;;;;;10.75;4.80;;;;;;;;;;4952071;28;20047;-63
2023/06/12 12:41:00;;;;;;;7.40;3.70;;;;;;;;;;4952166;29;20062;-64
2023/06/12 12:43:30;;;;;;;10.23;4.20;;;;;;;;;;4920480;29;20102;-64
2023/06/12 12:46:00;;;;;;;13.20;4.25;;;;;;;;;;4965812;28;20168;-64
2023/06/12 12:48:31;;;;;;;6.07;2.92;;;;;;;;;;4971470;28;20062;-64
2023/06/12 12:51:01;;;;;;;8.25;2.85;;;;;;;;;;4951914;29;20047;-63
2023/06/12 12:53:35;;;;;;;11.80;4.10;;;;;;;;;;4935783;29;20048;-63
2023/06/12 12:56:06;;;;;;;4.95;2.42;;;;;;;;;;4951941;29;20063;-63
2023/06/12 12:58:36;;;;;;;9.30;2.88;;;;;;;;;;4920239;29;20492;-64
2023/06/12 13:01:06;;;;;;;12.40;3.00;;;;;;;;;;4951980;29;20058;-64
2023/06/12 13:03:38;;;;;;;5.97;3.05;;;;;;;;;;4951745;29;20060;-64
2023/06/12 13:06:11;;;;;;;7.78;2.25;;;;;;;;;;4935490;29;20574;-64
2023/06/12 13:08:42;;;;;;;6.50;2.50;;;;;;;;;;4955935;28;20066;-63
2023/06/12 13:11:12;;;;;;;6.72;2.40;;;;;;;;;;4990023;28;20061;-64
2023/06/12 13:13:42;;;;;;;4.55;1.80;;;;;;;;;;4957581;28;20565;-63
2023/06/12 13:16:12;;;;;;;4.13;1.75;;;;;;;;;;4990105;28;20510;-64
2023/06/12 13:18:43;;;;;;;6.25;2.92;;;;;;;;;;4990344;28;20050;-63
2023/06/12 13:21:13;;;;;;;21.70;7.00;;;;;;;;;;4973858;28;20058;-64
2023/06/12 13:23:44;;;;;;;7.90;3.03;;;;;;;;;;4990178;28;20054;-63
2023/06/12 13:26:14;;;;;;;5.47;3.03;;;;;;;;;;4987480;28;20066;-63
2023/06/12 13:28:45;;;;;;;4.30;2.08;;;;;;;;;;5000727;28;20057;-65
2023/06/12 13:31:16;;;;;;;5.68;2.20;;;;;;;;;;5007497;28;20054;-64
2023/06/12 13:33:47;;;;;;;58.33;19.23;;;;;;;;;;5008599;28;20203;-64
2023/06/12 13:36:17;;;;;;;59.53;18.55;;;;;;;;;;5009110;28;20637;-64
2023/06/12 13:38:47;;;;;;;53.55;19.73;;;;;;;;;;5008512;28;20061;-65
2023/06/12 13:41:18;;;;;;;8.40;2.90;;;;;;;;;;5008456;28;20053;-64
2023/06/12 13:43:48;;;;;;;6.63;3.33;;;;;;;;;;4953550;28;20047;-65
2023/06/12 13:46:19;;;;;;;10.07;3.20;;;;;;;;;;4969598;28;20066;-65
2023/06/12 13:48:53;;;;;;;9.15;4.63;;;;;;;;;;4937697;28;20518;-64
2023/06/12 13:51:23;;;;;;;16.85;9.18;;;;;;;;;;4972152;28;20065;-64
2023/06/12 13:53:54;;;;;;;11.32;5.03;;;;;;;;;;4988749;28;20050;-64
2023/06/12 13:56:25;;;;;;;5.07;1.95;;;;;;;;;;4988866;28;20054;-64
2023/06/12 13:58:55;;;;;;;7.70;3.53;;;;;;;;;;4972430;28;20050;-65
2023/06/12 14:01:27;;;;;;;7.63;1.98;;;;;;;;;;4988767;28;20058;-65
2023/06/12 14:04:00;;;;;;;5.45;2.70;;;;;;;;;;4941797;28;20058;-64
2023/06/12 14:06:32;;;;;;;5.80;2.15;;;;;;;;;;4989135;28;20061;-66
2023/06/12 14:09:03;;;;;;;6.30;2.53;;;;;;;;;;4975636;28;20560;-64
2023/06/12 14:11:35;;;;;;;6.45;2.50;;;;;;;;;;4998181;28;20534;-64
2023/06/12 14:14:05;;;;;;;6.80;2.75;;;;;;;;;;4998227;28;20110;-65
2023/06/12 14:16:36;;;;;;;3.95;1.85;;;;;;;;;;4998482;28;20062;-64
2023/06/12 14:19:07;;;;;;;4.53;2.10;;;;;;;;;;4999295;28;20133;-64
2023/06/12 14:21:38;;;;;;;4.43;1.85;;;;;;;;;;4955317;28;20432;-64
2023/06/12 14:24:09;;;;;;;5.10;2.42;;;;;;;;;;5028234;28;20170;-64
2023/06/12 14:27:00;;;;;;;4.85;1.70;;;;;;;;;;5040704;28;20052;-65
2023/06/12 14:29:30;;;;;;;4.13;1.80;;;;;;;;;;5034059;28;20536;-64
2023/06/12 14:32:00;;;;;;;5.57;1.90;;;;;;;;;;5023109;28;20056;-64
2023/06/12 14:34:31;;;;;;;4.35;1.60;;;;;;;;;;5070206;28;20400;-65
2023/06/12 14:37:01;;;;;;;4.82;1.88;;;;;;;;;;5052022;28;20064;-64
2023/06/12 14:39:31;;;;;;;3.60;1.67;;;;;;;;;;5035164;28;20072;-64
2023/06/12 14:42:01;;;;;;;9.52;3.15;;;;;;;;;;5051562;28;20546;-63
2023/06/12 14:44:32;;;;;;;8.60;3.30;;;;;;;;;;5070252;28;20051;-64
2023/06/12 14:47:02;;;;;;;8.18;2.55;;;;;;;;;;5070965;28;20491;-64
2023/06/12 14:49:33;;;;;;;4.43;2.30;;;;;;;;;;5071110;28;20045;-64
2023/06/12 14:52:03;;;;;;;4.97;1.42;;;;;;;;;;5056910;28;20044;-64
2023/06/12 14:54:45;;;;;;;3.95;1.80;;;;;;;;;;5074607;28;20037;-63
2023/06/12 14:57:15;;;;;;;3.65;1.40;;;;;;;;;;5055985;28;20052;-64
2023/06/12 14:59:48;;;;;;;5.28;2.13;;;;;;;;;;5050430;28;20059;-65
2023/06/12 15:02:18;;;;;;;3.00;1.35;;;;;;;;;;5094773;28;20040;-64
2023/06/12 15:04:50;;;;;;;3.75;1.55;;;;;;;;;;5094418;28;20040;-64
2023/06/12 15:07:20;;;;;;;4.32;1.48;;;;;;;;;;5017864;28;20056;-64
2023/06/12 15:09:51;;;;;;;3.65;1.73;;;;;;;;;;5051581;28;20429;-63
2023/06/12 15:12:21;;;;;;;6.85;2.08;;;;;;;;;;5031613;28;20053;-64
2023/06/12 15:14:54;;;;;;;4.15;1.65;;;;;;;;;;4984104;28;20383;-65